Trinidad, Colorado
Current Conditions -  °F | °C
As of 11:54 AM on Saturday 25 Oct 2014 (Local Time) from KTAD Reporting Station
Clear Clear  
Wind Chill: 76°   Ceiling: Unl
Heat Index: 76°   Visibility: 10mi
Dew Point: 27°   Wind: 3mph
Humidity: 16%   Direction: 60°ENE
Pressure: 30.25"   Gusts: NA
Location:  37.17°N, 104.51°W
Report Text: KTAD 251754Z AUTO 06003KT 10SM CLR 24/M03 A3025 RMK AO2 SLP173 T02441028 10244 20089 58007
Loading
Personal Weather Stations






























Interactive Weather Map
Tropical Storm Tracking
New forecast layout! Learn more

10-Day Weather Forecast

Advertisements
Track Severe Weather on mobile